Time;durP1;ratioP1;P1;durP2;ratioP2;P2;SDS_P1;SDS_P2;PMS_P1;PMS_P2;Temp;Humidity;BMP_temperature;BMP_pressure;BME280_temperature;BME280_humidity;BME280_pressure;Samples;Min_cycle;Max_cycle;Signal;HPM_P1;HPM_P2
2024/01/28 00:01:47;;;;;;;10.50;4.55;;;;;;;;;;5094707;28;20071;-81
2024/01/28 00:04:13;;;;;;;6.63;4.22;;;;;;;;;;5094465;28;20046;-80
2024/01/28 00:06:39;;;;;;;8.48;4.68;;;;;;;;;;5092050;28;20472;-80
2024/01/28 00:09:06;;;;;;;6.88;4.00;;;;;;;;;;5096097;28;20048;-80
2024/01/28 00:11:32;;;;;;;9.30;4.15;;;;;;;;;;5095192;28;20052;-80
2024/01/28 00:13:58;;;;;;;10.15;4.18;;;;;;;;;;5093199;28;20044;-80
2024/01/28 00:16:24;;;;;;;8.95;4.55;;;;;;;;;;5093041;28;20460;-80
2024/01/28 00:18:54;;;;;;;9.57;4.88;;;;;;;;;;5093298;28;20081;-81
2024/01/28 00:21:20;;;;;;;8.60;4.60;;;;;;;;;;5091202;28;20123;-81
2024/01/28 00:23:46;;;;;;;10.15;4.40;;;;;;;;;;5092802;28;20125;-81
2024/01/28 00:26:12;;;;;;;9.88;4.32;;;;;;;;;;5092779;28;20046;-81
2024/01/28 00:28:38;;;;;;;7.32;4.22;;;;;;;;;;5092781;28;20042;-80
2024/01/28 00:31:08;;;;;;;6.63;4.30;;;;;;;;;;5093514;28;20044;-80
2024/01/28 00:33:34;;;;;;;10.38;4.32;;;;;;;;;;5093434;28;20070;-80
2024/01/28 00:36:00;;;;;;;9.88;4.57;;;;;;;;;;5091353;28;20028;-80
2024/01/28 00:38:31;;;;;;;7.65;4.53;;;;;;;;;;5092805;28;20044;-80
2024/01/28 00:40:57;;;;;;;8.95;3.97;;;;;;;;;;5091827;28;20040;-80
2024/01/28 00:43:23;;;;;;;9.38;4.00;;;;;;;;;;5094523;28;20048;-81
2024/01/28 00:45:49;;;;;;;10.60;4.05;;;;;;;;;;5092987;28;20369;-80
2024/01/28 00:48:15;;;;;;;8.52;4.10;;;;;;;;;;5096053;28;20078;-80
2024/01/28 00:50:41;;;;;;;5.50;3.47;;;;;;;;;;5091790;28;20047;-80
2024/01/28 00:53:07;;;;;;;7.20;3.92;;;;;;;;;;5095576;28;20062;-81
2024/01/28 00:55:33;;;;;;;11.43;4.45;;;;;;;;;;5094103;28;20054;-80
2024/01/28 00:58:02;;;;;;;10.25;4.90;;;;;;;;;;5077841;28;20032;-81
2024/01/28 01:00:28;;;;;;;7.95;4.40;;;;;;;;;;5094875;28;20112;-80
2024/01/28 01:02:54;;;;;;;12.45;4.50;;;;;;;;;;5095627;28;20036;-80
2024/01/28 01:05:20;;;;;;;10.25;4.10;;;;;;;;;;5094980;28;20040;-81
2024/01/28 01:07:46;;;;;;;8.10;4.32;;;;;;;;;;5097043;28;20485;-80
2024/01/28 01:10:12;;;;;;;9.43;4.05;;;;;;;;;;5103818;28;20154;-81
2024/01/28 01:12:38;;;;;;;8.40;4.05;;;;;;;;;;5101273;28;20052;-80
2024/01/28 01:15:04;;;;;;;6.97;3.58;;;;;;;;;;5104267;28;20079;-80
2024/01/28 01:17:30;;;;;;;7.20;3.97;;;;;;;;;;5104169;28;20044;-81
2024/01/28 01:19:56;;;;;;;8.10;3.75;;;;;;;;;;5095421;28;20067;-81
2024/01/28 01:22:22;;;;;;;9.95;4.32;;;;;;;;;;5089512;28;20056;-81
2024/01/28 01:24:48;;;;;;;6.85;4.30;;;;;;;;;;5090190;28;20040;-81
2024/01/28 01:27:14;;;;;;;6.78;4.07;;;;;;;;;;5090655;28;20044;-81
2024/01/28 01:29:40;;;;;;;9.32;4.22;;;;;;;;;;5090167;28;20165;-81
2024/01/28 01:32:06;;;;;;;6.13;4.50;;;;;;;;;;5089501;28;20472;-81
2024/01/28 01:34:32;;;;;;;9.05;4.43;;;;;;;;;;5089954;28;20055;-81
2024/01/28 01:36:58;;;;;;;6.85;3.25;;;;;;;;;;5089900;28;20032;-81
2024/01/28 01:39:24;;;;;;;8.88;4.65;;;;;;;;;;5089081;28;20036;-81
2024/01/28 01:41:50;;;;;;;8.18;4.53;;;;;;;;;;5089827;28;20032;-80
2024/01/28 01:44:16;;;;;;;8.07;3.63;;;;;;;;;;5088110;28;20039;-81
2024/01/28 01:46:43;;;;;;;7.07;4.10;;;;;;;;;;5089721;28;20051;-80
2024/01/28 01:49:10;;;;;;;5.93;4.00;;;;;;;;;;5085780;28;20135;-80
2024/01/28 01:51:36;;;;;;;7.22;3.85;;;;;;;;;;5089527;28;20126;-80
2024/01/28 01:54:02;;;;;;;9.65;4.35;;;;;;;;;;5089404;28;20036;-81
2024/01/28 01:56:29;;;;;;;11.82;5.03;;;;;;;;;;5086923;28;20100;-80
2024/01/28 01:58:57;;;;;;;6.97;3.50;;;;;;;;;;5089482;28;20032;-80
2024/01/28 02:01:24;;;;;;;11.88;4.20;;;;;;;;;;5090681;28;20044;-80
2024/01/28 02:03:51;;;;;;;9.30;4.45;;;;;;;;;;5088185;28;20054;-80
2024/01/28 02:06:17;;;;;;;8.15;4.75;;;;;;;;;;5088345;28;20507;-80
2024/01/28 02:08:43;;;;;;;7.65;4.10;;;;;;;;;;5089976;28;20056;-80
2024/01/28 02:11:10;;;;;;;9.18;4.20;;;;;;;;;;5085236;28;20127;-81
2024/01/28 02:13:36;;;;;;;9.85;4.20;;;;;;;;;;5087175;28;20093;-81
2024/01/28 02:16:02;;;;;;;9.02;4.45;;;;;;;;;;5089134;28;21235;-81
2024/01/28 02:18:28;;;;;;;11.00;4.70;;;;;;;;;;5088685;28;20124;-80
2024/01/28 02:20:54;;;;;;;9.45;4.10;;;;;;;;;;5087735;28;20100;-80
2024/01/28 02:23:21;;;;;;;8.95;5.10;;;;;;;;;;5089691;28;20029;-81
2024/01/28 02:25:47;;;;;;;8.63;4.25;;;;;;;;;;5092250;28;20055;-80
2024/01/28 02:28:13;;;;;;;8.38;4.22;;;;;;;;;;5092802;28;20040;-80
2024/01/28 02:30:39;;;;;;;11.38;5.20;;;;;;;;;;5093000;28;20098;-80
2024/01/28 02:33:05;;;;;;;11.75;5.20;;;;;;;;;;5091855;28;20094;-80
2024/01/28 02:35:31;;;;;;;8.43;4.43;;;;;;;;;;5092226;28;20043;-80
2024/01/28 02:37:57;;;;;;;7.80;4.60;;;;;;;;;;5092998;28;20571;-80
2024/01/28 02:40:23;;;;;;;9.13;4.13;;;;;;;;;;5091695;28;20074;-80
2024/01/28 02:42:49;;;;;;;8.88;5.03;;;;;;;;;;5092050;28;20064;-80
2024/01/28 02:45:15;;;;;;;10.18;4.75;;;;;;;;;;5092396;28;20374;-80
2024/01/28 02:47:41;;;;;;;11.60;4.95;;;;;;;;;;5095754;28;20051;-81
2024/01/28 02:50:07;;;;;;;7.93;4.53;;;;;;;;;;5094331;28;20486;-80
2024/01/28 02:52:33;;;;;;;7.78;4.57;;;;;;;;;;5093505;28;20119;-80
2024/01/28 02:54:59;;;;;;;8.13;4.38;;;;;;;;;;5094139;28;20067;-80
2024/01/28 02:57:25;;;;;;;9.77;4.30;;;;;;;;;;5095699;28;20085;-80
2024/01/28 02:59:52;;;;;;;10.07;4.78;;;;;;;;;;5092883;28;20054;-80
2024/01/28 03:02:18;;;;;;;9.43;5.68;;;;;;;;;;5093364;28;20048;-80
2024/01/28 03:04:44;;;;;;;10.82;4.45;;;;;;;;;;5094237;28;20078;-80
2024/01/28 03:07:10;;;;;;;9.05;4.95;;;;;;;;;;5093900;28;20369;-81
2024/01/28 03:09:36;;;;;;;8.65;4.40;;;;;;;;;;5092019;28;20147;-80
2024/01/28 03:12:02;;;;;;;12.60;4.72;;;;;;;;;;5094868;28;20050;-80
2024/01/28 03:14:28;;;;;;;10.60;4.72;;;;;;;;;;5091560;28;20079;-80
2024/01/28 03:16:54;;;;;;;9.38;4.50;;;;;;;;;;5092841;28;20060;-80
2024/01/28 03:19:20;;;;;;;8.48;4.40;;;;;;;;;;5095679;28;20131;-80
2024/01/28 03:21:46;;;;;;;9.70;5.43;;;;;;;;;;5075137;28;20051;-80
2024/01/28 03:24:12;;;;;;;9.57;5.05;;;;;;;;;;5093418;28;20109;-80
2024/01/28 03:26:39;;;;;;;10.38;4.82;;;;;;;;;;5093047;28;20043;-80
2024/01/28 03:29:05;;;;;;;12.60;5.80;;;;;;;;;;5094637;28;20044;-80
2024/01/28 03:31:31;;;;;;;10.80;5.18;;;;;;;;;;5094342;28;20064;-80
2024/01/28 03:33:57;;;;;;;10.70;4.80;;;;;;;;;;5094774;28;20067;-80
2024/01/28 03:36:23;;;;;;;10.52;4.78;;;;;;;;;;5092337;28;20088;-80
2024/01/28 03:38:49;;;;;;;9.13;4.28;;;;;;;;;;5092530;28;20075;-80
2024/01/28 03:41:16;;;;;;;8.60;4.50;;;;;;;;;;5094944;28;20511;-80
2024/01/28 03:43:48;;;;;;;11.40;4.47;;;;;;;;;;5093854;28;20047;-80
2024/01/28 03:46:14;;;;;;;8.77;5.18;;;;;;;;;;5092744;28;20116;-80
2024/01/28 03:48:40;;;;;;;10.98;4.88;;;;;;;;;;5095296;28;20140;-80
2024/01/28 03:51:06;;;;;;;10.98;4.78;;;;;;;;;;5095216;28;20063;-80
2024/01/28 03:53:32;;;;;;;7.90;4.22;;;;;;;;;;5095872;28;20512;-80
2024/01/28 03:55:58;;;;;;;11.55;4.93;;;;;;;;;;5095205;28;20043;-80
2024/01/28 03:58:24;;;;;;;10.57;5.07;;;;;;;;;;5079065;28;20046;-80
2024/01/28 04:00:50;;;;;;;8.70;4.85;;;;;;;;;;5094741;28;20523;-80
2024/01/28 04:03:16;;;;;;;11.88;5.53;;;;;;;;;;5077663;28;20050;-80
2024/01/28 04:05:43;;;;;;;7.82;4.90;;;;;;;;;;5092739;28;20032;-80
2024/01/28 04:08:12;;;;;;;7.45;4.68;;;;;;;;;;5095713;28;20082;-80
2024/01/28 04:10:38;;;;;;;9.57;4.03;;;;;;;;;;5094827;28;20056;-80
2024/01/28 04:13:04;;;;;;;11.10;4.63;;;;;;;;;;5094998;28;20076;-80
2024/01/28 04:15:30;;;;;;;9.88;4.95;;;;;;;;;;5098579;28;20036;-80
2024/01/28 04:17:56;;;;;;;7.95;4.60;;;;;;;;;;5099798;28;20039;-80
2024/01/28 04:20:22;;;;;;;9.60;4.88;;;;;;;;;;5102320;28;20040;-80
2024/01/28 04:22:48;;;;;;;11.05;4.28;;;;;;;;;;5101882;28;20042;-80
2024/01/28 04:25:14;;;;;;;5.80;3.47;;;;;;;;;;5095052;28;20122;-80
2024/01/28 04:27:40;;;;;;;7.63;4.07;;;;;;;;;;5092241;28;20032;-80
2024/01/28 04:30:08;;;;;;;7.70;3.92;;;;;;;;;;5075496;28;20042;-80
2024/01/28 04:32:34;;;;;;;9.02;4.55;;;;;;;;;;5092756;28;20105;-80
2024/01/28 04:35:00;;;;;;;10.82;4.72;;;;;;;;;;5089950;28;20089;-80
2024/01/28 04:37:27;;;;;;;6.05;4.13;;;;;;;;;;5092940;28;20552;-80
2024/01/28 04:39:53;;;;;;;11.95;4.65;;;;;;;;;;5092072;28;20040;-80
2024/01/28 04:42:22;;;;;;;5.15;3.75;;;;;;;;;;5093174;28;20048;-80
2024/01/28 04:44:51;;;;;;;9.10;4.95;;;;;;;;;;5122286;27;20086;-80
2024/01/28 04:47:17;;;;;;;8.20;4.43;;;;;;;;;;5088998;28;20108;-80
2024/01/28 04:49:43;;;;;;;9.93;4.82;;;;;;;;;;5089555;28;20040;-80
2024/01/28 04:52:09;;;;;;;8.30;5.65;;;;;;;;;;5092023;28;20089;-80
2024/01/28 04:54:35;;;;;;;10.98;4.18;;;;;;;;;;5090335;28;20044;-80
2024/01/28 04:57:01;;;;;;;12.18;4.40;;;;;;;;;;5091690;28;20042;-80
2024/01/28 04:59:28;;;;;;;9.50;4.05;;;;;;;;;;5088721;28;20046;-80
2024/01/28 05:01:55;;;;;;;7.95;3.97;;;;;;;;;;5090199;28;20401;-80
2024/01/28 05:04:21;;;;;;;6.65;4.00;;;;;;;;;;5090895;28;20131;-80
2024/01/28 05:06:47;;;;;;;7.53;4.35;;;;;;;;;;5089161;28;20058;-80
2024/01/28 05:09:13;;;;;;;6.18;3.75;;;;;;;;;;5089463;28;20047;-80
2024/01/28 05:11:39;;;;;;;5.43;3.35;;;;;;;;;;5089007;28;20500;-80
2024/01/28 05:14:05;;;;;;;8.35;4.78;;;;;;;;;;5090191;28;21100;-80
2024/01/28 05:16:31;;;;;;;12.07;4.70;;;;;;;;;;5087869;28;20043;-80
2024/01/28 05:18:57;;;;;;;8.40;3.83;;;;;;;;;;5088884;28;20036;-80
2024/01/28 05:21:23;;;;;;;8.70;5.28;;;;;;;;;;5087211;28;20480;-80
2024/01/28 05:23:50;;;;;;;11.45;5.20;;;;;;;;;;5089803;28;20382;-80
2024/01/28 05:26:17;;;;;;;9.48;4.40;;;;;;;;;;5090330;28;20036;-80
2024/01/28 05:28:44;;;;;;;7.10;4.50;;;;;;;;;;5087238;28;20040;-80
2024/01/28 05:31:11;;;;;;;9.32;4.88;;;;;;;;;;5090124;28;20081;-80
2024/01/28 05:33:37;;;;;;;7.90;3.95;;;;;;;;;;5089746;28;20124;-80
2024/01/28 05:36:16;;;;;;;5.18;3.72;;;;;;;;;;5087517;28;20109;-81
2024/01/28 05:38:44;;;;;;;9.65;3.65;;;;;;;;;;5086321;28;20369;-80
2024/01/28 05:41:10;;;;;;;8.48;4.30;;;;;;;;;;5088796;28;20059;-80
2024/01/28 05:43:36;;;;;;;7.63;4.03;;;;;;;;;;5088852;28;20493;-80
2024/01/28 05:46:03;;;;;;;7.53;4.45;;;;;;;;;;5089472;28;20032;-80
2024/01/28 05:48:29;;;;;;;8.52;4.63;;;;;;;;;;5092353;28;20119;-80
2024/01/28 05:50:55;;;;;;;6.60;3.80;;;;;;;;;;5089996;28;20103;-80
2024/01/28 05:53:21;;;;;;;8.63;4.57;;;;;;;;;;5091175;28;20114;-80
2024/01/28 05:55:47;;;;;;;8.57;4.50;;;;;;;;;;5090600;28;20035;-80
2024/01/28 05:58:13;;;;;;;8.75;4.22;;;;;;;;;;5094218;28;20097;-80
2024/01/28 06:00:39;;;;;;;5.97;4.00;;;;;;;;;;5094145;28;20040;-80
2024/01/28 06:03:05;;;;;;;9.77;4.70;;;;;;;;;;5097077;28;20056;-80
2024/01/28 06:05:31;;;;;;;9.13;4.85;;;;;;;;;;5096542;28;20039;-80
2024/01/28 06:07:57;;;;;;;8.90;4.10;;;;;;;;;;5077578;28;20055;-80
2024/01/28 06:10:23;;;;;;;8.27;4.55;;;;;;;;;;5093239;28;20458;-80
2024/01/28 06:12:49;;;;;;;6.82;4.45;;;;;;;;;;5092809;28;20071;-81
2024/01/28 06:15:15;;;;;;;8.35;3.72;;;;;;;;;;5092546;28;20067;-80
2024/01/28 06:17:41;;;;;;;10.30;4.78;;;;;;;;;;5092244;28;20040;-80
2024/01/28 06:20:08;;;;;;;11.80;4.90;;;;;;;;;;5093581;28;20036;-80
2024/01/28 06:22:34;;;;;;;8.02;3.95;;;;;;;;;;5097763;28;20101;-80
2024/01/28 06:25:01;;;;;;;5.93;4.05;;;;;;;;;;5092923;28;20662;-80
2024/01/28 06:27:27;;;;;;;5.93;4.47;;;;;;;;;;5092056;28;20071;-81
2024/01/28 06:29:53;;;;;;;8.68;4.82;;;;;;;;;;5093527;28;20025;-81
2024/01/28 06:32:21;;;;;;;7.72;4.53;;;;;;;;;;5092729;28;20063;-81
2024/01/28 06:34:47;;;;;;;8.35;3.47;;;;;;;;;;5090965;28;20115;-80
2024/01/28 06:37:13;;;;;;;8.00;4.15;;;;;;;;;;5074022;28;20492;-81
2024/01/28 06:39:39;;;;;;;5.88;3.78;;;;;;;;;;5093371;28;20038;-81
2024/01/28 06:42:05;;;;;;;9.00;4.30;;;;;;;;;;5089823;28;20052;-81
2024/01/28 06:44:32;;;;;;;8.40;3.83;;;;;;;;;;5091127;28;20054;-80
2024/01/28 06:46:59;;;;;;;10.88;3.67;;;;;;;;;;5090063;28;20089;-81
2024/01/28 06:49:25;;;;;;;7.40;4.03;;;;;;;;;;5091487;28;20085;-81
2024/01/28 06:51:51;;;;;;;8.35;3.72;;;;;;;;;;5089480;28;20039;-82
2024/01/28 06:54:21;;;;;;;7.20;3.97;;;;;;;;;;5075130;28;20040;-82
2024/01/28 06:56:48;;;;;;;7.88;3.63;;;;;;;;;;5089533;28;20521;-82
2024/01/28 06:59:14;;;;;;;8.52;4.03;;;;;;;;;;5090090;28;20048;-82
2024/01/28 07:01:41;;;;;;;7.72;4.00;;;;;;;;;;5079793;28;20032;-81
2024/01/28 07:04:07;;;;;;;10.05;3.90;;;;;;;;;;5093125;28;20042;-82
2024/01/28 07:06:33;;;;;;;6.50;3.83;;;;;;;;;;5089696;28;20036;-82
2024/01/28 07:08:59;;;;;;;6.28;3.92;;;;;;;;;;5092489;28;20078;-82
2024/01/28 07:11:25;;;;;;;8.63;4.85;;;;;;;;;;5094134;28;20039;-81
2024/01/28 07:13:51;;;;;;;8.93;4.85;;;;;;;;;;5080439;28;20543;-81
2024/01/28 07:16:17;;;;;;;7.25;4.10;;;;;;;;;;5080441;28;20044;-81
2024/01/28 07:18:43;;;;;;;10.07;4.38;;;;;;;;;;5098873;28;20039;-81
2024/01/28 07:21:10;;;;;;;6.22;3.67;;;;;;;;;;5098516;28;20044;-81
2024/01/28 07:23:36;;;;;;;10.13;4.20;;;;;;;;;;5097893;28;20285;-81
2024/01/28 07:26:02;;;;;;;9.65;4.53;;;;;;;;;;5103549;28;20093;-81
2024/01/28 07:28:28;;;;;;;7.20;3.80;;;;;;;;;;5103519;28;20040;-81
2024/01/28 07:30:54;;;;;;;7.47;4.68;;;;;;;;;;5102179;28;20051;-82
2024/01/28 07:33:20;;;;;;;5.57;4.20;;;;;;;;;;5097073;28;20036;-81
2024/01/28 07:35:47;;;;;;;7.35;4.20;;;;;;;;;;5096574;28;20523;-82
2024/01/28 07:38:13;;;;;;;11.13;4.75;;;;;;;;;;5099867;28;20040;-82
2024/01/28 07:40:39;;;;;;;6.95;4.78;;;;;;;;;;5095509;28;20040;-82
2024/01/28 07:43:05;;;;;;;6.85;4.25;;;;;;;;;;5094916;28;20039;-80
2024/01/28 07:45:31;;;;;;;7.07;3.83;;;;;;;;;;5094697;28;20039;-81
2024/01/28 07:47:57;;;;;;;7.30;3.75;;;;;;;;;;5095789;28;20047;-82
2024/01/28 07:50:23;;;;;;;10.93;4.68;;;;;;;;;;5097550;28;20535;-82
2024/01/28 07:52:49;;;;;;;8.45;4.18;;;;;;;;;;5094045;28;20040;-81
2024/01/28 07:55:15;;;;;;;10.68;4.93;;;;;;;;;;5091964;28;20050;-81
2024/01/28 07:57:41;;;;;;;8.43;4.70;;;;;;;;;;5094401;28;20504;-81
2024/01/28 08:00:10;;;;;;;8.68;5.47;;;;;;;;;;5090405;28;20497;-82
2024/01/28 08:02:36;;;;;;;7.47;4.07;;;;;;;;;;5093127;28;20096;-83
2024/01/28 08:05:01;;;;;;;9.55;4.50;;;;;;;;;;5092584;28;20063;-83
2024/01/28 08:07:27;;;;;;;9.38;4.40;;;;;;;;;;5094386;28;20067;-82
2024/01/28 08:09:53;;;;;;;9.48;5.55;;;;;;;;;;5088088;28;20060;-82
2024/01/28 08:12:19;;;;;;;9.15;4.68;;;;;;;;;;5091760;28;20051;-82
2024/01/28 08:14:45;;;;;;;7.45;4.57;;;;;;;;;;5090339;28;20039;-82
2024/01/28 08:17:12;;;;;;;11.45;5.50;;;;;;;;;;5085682;28;20075;-82
2024/01/28 08:19:38;;;;;;;8.30;4.10;;;;;;;;;;5086779;28;20768;-82
2024/01/28 08:22:04;;;;;;;9.05;4.68;;;;;;;;;;5085983;28;20046;-82
2024/01/28 08:24:30;;;;;;;9.30;4.57;;;;;;;;;;5074801;28;20040;-81
2024/01/28 08:26:58;;;;;;;11.43;4.88;;;;;;;;;;5086960;28;20126;-82
2024/01/28 08:29:24;;;;;;;6.00;3.90;;;;;;;;;;5089027;28;20040;-82
2024/01/28 08:31:50;;;;;;;5.55;3.88;;;;;;;;;;5091348;28;20050;-82
2024/01/28 08:34:16;;;;;;;7.97;4.85;;;;;;;;;;5086917;28;20073;-83
2024/01/28 08:36:42;;;;;;;8.10;4.45;;;;;;;;;;5091423;28;20040;-81
2024/01/28 08:39:09;;;;;;;6.00;4.47;;;;;;;;;;5091006;28;20036;-81
2024/01/28 08:41:36;;;;;;;11.13;5.18;;;;;;;;;;5084520;28;20396;-83
2024/01/28 08:44:02;;;;;;;5.95;3.55;;;;;;;;;;5086197;28;20051;-82
2024/01/28 08:46:28;;;;;;;10.15;4.45;;;;;;;;;;5090382;28;20127;-82
2024/01/28 08:48:54;;;;;;;8.32;4.53;;;;;;;;;;5089814;28;20445;-82
2024/01/28 08:51:20;;;;;;;10.73;4.82;;;;;;;;;;5090132;28;20400;-83
2024/01/28 08:53:46;;;;;;;8.65;3.92;;;;;;;;;;5089485;28;20044;-82
2024/01/28 08:56:12;;;;;;;8.70;4.13;;;;;;;;;;5090216;28;20043;-82
2024/01/28 08:58:38;;;;;;;6.20;4.07;;;;;;;;;;5089047;28;20043;-82
2024/01/28 09:01:05;;;;;;;9.40;3.63;;;;;;;;;;5090891;28;20044;-82
2024/01/28 09:03:31;;;;;;;9.20;3.80;;;;;;;;;;5073231;28;20040;-82
2024/01/28 09:06:00;;;;;;;7.57;3.55;;;;;;;;;;5090488;28;20042;-82
2024/01/28 09:08:30;;;;;;;9.35;3.85;;;;;;;;;;5123147;27;20048;-82
2024/01/28 09:10:56;;;;;;;9.10;4.07;;;;;;;;;;5089174;28;20093;-82
2024/01/28 09:13:23;;;;;;;8.13;4.35;;;;;;;;;;5073240;28;20373;-82
2024/01/28 09:15:49;;;;;;;8.00;4.55;;;;;;;;;;5088364;28;20044;-82
2024/01/28 09:18:15;;;;;;;7.00;3.80;;;;;;;;;;5088966;28;20066;-82
2024/01/28 09:20:41;;;;;;;7.25;4.20;;;;;;;;;;5084795;28;20097;-82
2024/01/28 09:23:07;;;;;;;7.82;4.07;;;;;;;;;;5088696;28;20044;-82
2024/01/28 09:25:34;;;;;;;4.97;3.83;;;;;;;;;;5088920;28;20066;-82
2024/01/28 09:28:00;;;;;;;5.30;3.72;;;;;;;;;;5087899;28;20039;-82
2024/01/28 09:30:26;;;;;;;6.00;3.35;;;;;;;;;;5071926;28;20047;-82
2024/01/28 09:32:52;;;;;;;4.85;2.97;;;;;;;;;;5087928;28;20048;-81
2024/01/28 09:35:18;;;;;;;6.97;3.83;;;;;;;;;;5088507;28;20066;-81
2024/01/28 09:37:44;;;;;;;5.40;3.10;;;;;;;;;;5086883;28;20031;-82
2024/01/28 09:40:13;;;;;;;4.63;3.22;;;;;;;;;;5071213;28;20036;-81
2024/01/28 09:42:59;;;;;;;3.78;3.15;;;;;;;;;;5088128;28;20043;-82
2024/01/28 09:45:27;;;;;;;6.30;3.17;;;;;;;;;;5089504;28;20097;-82
2024/01/28 09:47:54;;;;;;;5.82;4.20;;;;;;;;;;5089508;28;20626;-82
2024/01/28 09:50:20;;;;;;;4.10;2.50;;;;;;;;;;5089746;28;20047;-82
2024/01/28 09:52:46;;;;;;;6.47;3.13;;;;;;;;;;5070600;28;20032;-82
2024/01/28 09:55:12;;;;;;;6.88;3.30;;;;;;;;;;5089206;28;20505;-82
2024/01/28 09:57:39;;;;;;;5.70;3.13;;;;;;;;;;5089523;28;20051;-82
2024/01/28 10:00:07;;;;;;;5.18;3.53;;;;;;;;;;5089072;28;20040;-81
2024/01/28 10:02:33;;;;;;;5.93;3.15;;;;;;;;;;5088185;28;20122;-81
2024/01/28 10:05:01;;;;;;;6.68;3.25;;;;;;;;;;5090846;28;20036;-81
2024/01/28 10:07:27;;;;;;;5.10;3.15;;;;;;;;;;5089091;28;20101;-81
2024/01/28 10:09:53;;;;;;;6.22;3.13;;;;;;;;;;5088379;28;20052;-81
2024/01/28 10:12:19;;;;;;;3.25;2.80;;;;;;;;;;5089951;28;20066;-81
2024/01/28 10:14:52;;;;;;;4.55;3.20;;;;;;;;;;5073402;28;20073;-81
2024/01/28 10:17:21;;;;;;;6.82;3.10;;;;;;;;;;5091239;28;20744;-81
2024/01/28 10:19:47;;;;;;;4.05;2.60;;;;;;;;;;5089833;28;20097;-81
2024/01/28 10:22:13;;;;;;;6.72;3.40;;;;;;;;;;5090282;28;20044;-81
2024/01/28 10:24:42;;;;;;;5.22;2.45;;;;;;;;;;5090933;28;20554;-81
2024/01/28 10:27:08;;;;;;;5.63;2.97;;;;;;;;;;5092314;28;20071;-81
2024/01/28 10:29:34;;;;;;;4.55;3.15;;;;;;;;;;5092804;28;20388;-81
2024/01/28 10:32:01;;;;;;;4.40;3.03;;;;;;;;;;5090974;28;20196;-82
2024/01/28 10:34:27;;;;;;;6.13;3.40;;;;;;;;;;5092146;28;20517;-82
2024/01/28 10:36:55;;;;;;;4.90;2.85;;;;;;;;;;5092448;28;20153;-81
2024/01/28 10:39:22;;;;;;;4.75;2.88;;;;;;;;;;5096027;28;20036;-81
2024/01/28 10:41:56;;;;;;;4.50;2.85;;;;;;;;;;5098723;28;20036;-81
2024/01/28 10:44:22;;;;;;;5.03;2.58;;;;;;;;;;5094061;28;20048;-81
2024/01/28 10:46:53;;;;;;;3.55;2.83;;;;;;;;;;5102357;28;20032;-81
2024/01/28 10:49:19;;;;;;;;;;;;;;;;;;5131743;27;20097;-82
2024/01/28 10:51:46;;;;;;;4.22;2.60;;;;;;;;;;5098334;28;20379;-81
2024/01/28 10:54:13;;;;;;;4.28;2.75;;;;;;;;;;5094386;28;20108;-82
2024/01/28 10:56:40;;;;;;;4.43;2.75;;;;;;;;;;5091029;28;20040;-82
2024/01/28 10:59:06;;;;;;;4.25;2.75;;;;;;;;;;5092156;28;20044;-82
2024/01/28 11:01:33;;;;;;;6.07;3.33;;;;;;;;;;5092278;28;20047;-82
2024/01/28 11:04:00;;;;;;;6.03;2.55;;;;;;;;;;5089972;28;20082;-82
2024/01/28 11:06:35;;;;;;;5.20;2.30;;;;;;;;;;5087026;28;20051;-82
2024/01/28 11:09:01;;;;;;;3.70;2.38;;;;;;;;;;5091206;28;20052;-82
2024/01/28 11:11:27;;;;;;;5.93;2.60;;;;;;;;;;5090680;28;20048;-82
2024/01/28 11:13:55;;;;;;;4.15;2.45;;;;;;;;;;5088566;28;20044;-82
2024/01/28 11:16:21;;;;;;;3.65;2.38;;;;;;;;;;5092824;28;20131;-82
2024/01/28 11:19:05;;;;;;;4.60;2.53;;;;;;;;;;5092466;28;20067;-82
2024/01/28 11:21:33;;;;;;;2.58;1.80;;;;;;;;;;5091036;28;20047;-82
2024/01/28 11:23:59;;;;;;;4.82;2.88;;;;;;;;;;5094352;28;20415;-81
2024/01/28 11:26:28;;;;;;;2.63;2.00;;;;;;;;;;5091610;28;20127;-82
2024/01/28 11:28:55;;;;;;;5.88;2.10;;;;;;;;;;5075072;28;20036;-83
2024/01/28 11:31:32;;;;;;;4.22;2.13;;;;;;;;;;5092795;28;20051;-83
2024/01/28 11:34:14;;;;;;;3.83;2.30;;;;;;;;;;5091489;28;20086;-83
2024/01/28 11:36:42;;;;;;;4.20;2.30;;;;;;;;;;5092163;28;20047;-83
2024/01/28 11:39:11;;;;;;;2.38;1.90;;;;;;;;;;5092314;28;20048;-83
2024/01/28 11:41:38;;;;;;;2.80;2.00;;;;;;;;;;5091036;28;20044;-84
2024/01/28 11:44:04;;;;;;;4.25;1.90;;;;;;;;;;5092740;28;20036;-83
2024/01/28 11:46:33;;;;;;;3.50;1.92;;;;;;;;;;5093178;28;20055;-83
2024/01/28 11:48:59;;;;;;;3.60;2.03;;;;;;;;;;5095157;28;20485;-84
2024/01/28 11:51:27;;;;;;;4.00;2.00;;;;;;;;;;5076512;28;20044;-84
2024/01/28 11:53:53;;;;;;;4.28;1.88;;;;;;;;;;5093969;28;20114;-83
2024/01/28 11:56:19;;;;;;;3.53;1.77;;;;;;;;;;5092053;28;20504;-84
2024/01/28 11:58:46;;;;;;;3.22;1.83;;;;;;;;;;5091266;28;20486;-84
2024/01/28 12:01:12;;;;;;;3.35;2.00;;;;;;;;;;5092524;28;20052;-84
2024/01/28 12:03:39;;;;;;;3.50;2.13;;;;;;;;;;5092259;28;20122;-84
2024/01/28 12:06:05;;;;;;;2.58;1.50;;;;;;;;;;5087386;28;20038;-84
2024/01/28 12:08:32;;;;;;;3.22;2.13;;;;;;;;;;5092829;28;21652;-84
2024/01/28 12:11:02;;;;;;;3.40;1.80;;;;;;;;;;5096171;28;20089;-82
2024/01/28 12:13:28;;;;;;;3.97;1.95;;;;;;;;;;5086041;28;20047;-83
2024/01/28 12:15:58;;;;;;;3.25;1.63;;;;;;;;;;5090373;28;20036;-84
2024/01/28 12:18:29;;;;;;;2.20;1.52;;;;;;;;;;5089688;28;20048;-82
2024/01/28 12:20:55;;;;;;;3.85;1.70;;;;;;;;;;5083178;28;20040;-82
2024/01/28 12:23:21;;;;;;;2.63;1.63;;;;;;;;;;5087906;28;20032;-82
2024/01/28 12:25:49;;;;;;;3.47;1.58;;;;;;;;;;5091672;28;20571;-82
2024/01/28 12:28:15;;;;;;;3.72;1.77;;;;;;;;;;5090344;28;20036;-82
2024/01/28 12:30:41;;;;;;;3.35;1.88;;;;;;;;;;5074682;28;20036;-82
2024/01/28 12:33:08;;;;;;;3.60;1.90;;;;;;;;;;5091117;28;20044;-82
2024/01/28 12:35:34;;;;;;;2.67;1.50;;;;;;;;;;5092193;28;20039;-82
2024/01/28 12:37:59;;;;;;;3.15;1.70;;;;;;;;;;5091819;28;20047;-82
2024/01/28 12:40:25;;;;;;;2.45;1.40;;;;;;;;;;5123611;27;20041;-82
2024/01/28 12:42:52;;;;;;;1.42;1.20;;;;;;;;;;5090982;28;20076;-82
2024/01/28 12:45:18;;;;;;;2.28;1.45;;;;;;;;;;5094242;28;20404;-82
2024/01/28 12:47:44;;;;;;;2.13;1.40;;;;;;;;;;5094021;28;20044;-82
2024/01/28 12:50:10;;;;;;;1.67;1.40;;;;;;;;;;5093568;28;20042;-83
2024/01/28 12:52:36;;;;;;;2.10;1.30;;;;;;;;;;5092933;28;20039;-83
2024/01/28 12:55:03;;;;;;;3.63;1.40;;;;;;;;;;5094125;28;20055;-83
2024/01/28 12:57:28;;;;;;;2.15;1.40;;;;;;;;;;5091348;28;20786;-83
2024/01/28 12:59:55;;;;;;;2.28;1.40;;;;;;;;;;5075220;28;20062;-83
2024/01/28 13:02:21;;;;;;;1.40;1.30;;;;;;;;;;5092846;28;20028;-83
2024/01/28 13:04:47;;;;;;;2.55;1.45;;;;;;;;;;5091102;28;20040;-83
2024/01/28 13:07:13;;;;;;;1.85;1.25;;;;;;;;;;5092280;28;20111;-83
2024/01/28 13:09:39;;;;;;;3.30;1.40;;;;;;;;;;5089198;28;20048;-82
2024/01/28 13:12:06;;;;;;;2.25;1.33;;;;;;;;;;5090989;28;20067;-82
2024/01/28 13:14:31;;;;;;;3.38;1.48;;;;;;;;;;5091969;28;20044;-83
2024/01/28 13:16:57;;;;;;;2.10;1.65;;;;;;;;;;5091367;28;20111;-83
2024/01/28 13:19:25;;;;;;;2.50;1.48;;;;;;;;;;5094417;28;20052;-83
2024/01/28 13:21:51;;;;;;;2.03;1.38;;;;;;;;;;5094009;28;20044;-83
2024/01/28 13:24:17;;;;;;;2.60;1.48;;;;;;;;;;5092013;28;20051;-83
2024/01/28 13:26:43;;;;;;;3.15;1.40;;;;;;;;;;5092792;28;20036;-83
2024/01/28 13:29:09;;;;;;;2.38;1.20;;;;;;;;;;5093682;28;20036;-83
2024/01/28 13:31:35;;;;;;;4.57;1.67;;;;;;;;;;5093531;28;20078;-83
2024/01/28 13:34:01;;;;;;;2.50;1.70;;;;;;;;;;5092326;28;20040;-83
2024/01/28 13:36:27;;;;;;;1.70;1.33;;;;;;;;;;5094226;28;20548;-82
2024/01/28 13:38:53;;;;;;;3.22;1.65;;;;;;;;;;5094586;28;20040;-83
2024/01/28 13:41:19;;;;;;;3.42;1.40;;;;;;;;;;5094172;28;20393;-83
2024/01/28 13:43:45;;;;;;;3.25;1.60;;;;;;;;;;5097800;28;20050;-83
2024/01/28 13:46:11;;;;;;;3.38;1.58;;;;;;;;;;5097210;28;20122;-83
2024/01/28 13:48:37;;;;;;;3.30;1.42;;;;;;;;;;5095001;28;20036;-83
2024/01/28 13:51:03;;;;;;;3.70;1.73;;;;;;;;;;5095320;28;20101;-82
2024/01/28 13:53:30;;;;;;;1.33;0.95;;;;;;;;;;5099302;28;20044;-82
2024/01/28 13:55:56;;;;;;;2.63;1.65;;;;;;;;;;5098613;28;20075;-82
2024/01/28 13:58:22;;;;;;;5.45;1.60;;;;;;;;;;5096565;28;20043;-82
2024/01/28 14:00:48;;;;;;;2.42;1.40;;;;;;;;;;5099798;28;20074;-82
2024/01/28 14:03:14;;;;;;;2.53;1.77;;;;;;;;;;5103225;28;20052;-82
2024/01/28 14:05:41;;;;;;;2.47;1.27;;;;;;;;;;5102547;28;20032;-82
2024/01/28 14:08:08;;;;;;;1.83;1.45;;;;;;;;;;5099999;28;20100;-82
2024/01/28 14:10:34;;;;;;;2.08;1.20;;;;;;;;;;5094534;28;20048;-82
2024/01/28 14:13:00;;;;;;;2.22;1.30;;;;;;;;;;5090404;28;20040;-83
2024/01/28 14:15:26;;;;;;;3.30;1.40;;;;;;;;;;5094191;28;20408;-83
2024/01/28 14:17:52;;;;;;;1.42;1.20;;;;;;;;;;5090904;28;20401;-83
2024/01/28 14:20:18;;;;;;;1.30;1.15;;;;;;;;;;5096836;28;20054;-83
2024/01/28 14:22:44;;;;;;;3.58;1.77;;;;;;;;;;5095763;28;20140;-83
2024/01/28 14:25:10;;;;;;;2.67;1.60;;;;;;;;;;5093044;28;20048;-83
2024/01/28 14:27:36;;;;;;;3.00;1.52;;;;;;;;;;5095023;28;20098;-82
2024/01/28 14:30:02;;;;;;;4.03;1.45;;;;;;;;;;5094481;28;20043;-83
2024/01/28 14:32:28;;;;;;;2.95;1.73;;;;;;;;;;5091473;28;20044;-83
2024/01/28 14:34:54;;;;;;;1.40;1.00;;;;;;;;;;5090656;28;20052;-83
2024/01/28 14:37:20;;;;;;;2.33;1.17;;;;;;;;;;5095217;28;20126;-83